Terminal Aerodrome Forecast
Issued by NWS

Home | Current Version | Previous Version | Text Only | Print | Product List | Glossary On
Versions: 1 2 3 4 5 6 7 8 9 10 11 12 13 14 15 16 17 18
873
FTUS41 KGYX 282332
TAFHIE
TAF
KHIE 282332Z 2900/2924 VRB04KT P6SM BKN250
     FM291000 VRB03KT P6SM -SHRA BKN040
     FM291700 28012G20KT P6SM BKN050=

USA.gov is the U.S. government's official web portal to all federal, state and local government web resources and services.